Tiempo atmosférico en la estación meteorológica de Cenicero, La Rioja (429 m.)



Fecha
DESCASC
Temp. máxima en grados centígrados (hora)
DESCASC
Temp. mínima en grados centígrados (hora)
DESCASC
Temp. media en grados centígrados
DESCASC
Racha de viento máxima en m/sg (hora)
DESCASC
Velocidad máxima media en intervalos de 10 minutos(hora)
DESCASC
Precipitaciones diarias en mm
DESCASC
Precipitaciones de 00:00 a 06:00 en mm
DESCASC
Precipitaciones de 06:00 a 12:00 en mm
DESCASC
Precipitaciones de 12:00 a 18:00 en mm
DESCASC
Precipitaciones de 18:00 a 24:00 en mm
DESCASC
07-08-2020 35.3 (15:30) 22.4 (20:00) 28.8 14.72 (16:30) 6.67 (16:30) 29.4 0 0 15 14.4
06-08-2020 35 (18:10) 14.4 (07:10) 24.7 10.28 (11:30) 5.83 (13:40) 0 0 0 0 0
05-08-2020 35.2 (17:40) 12.6 (07:30) 23.9 6.11 (20:20) 2.78 (02:20) 0 0 0 0 0
04-08-2020 27.8 (17:20) 15.2 (04:10) 21.5 5.83 (20:00) 3.33 (02:30) 0 0 0 0 0
03-08-2020 25.4 (15:30) 14.3 (07:10) 19.8 8.06 (14:00) 4.17 (16:10) 0 0 0 0 0
02-08-2020 23.7 (15:40) 18 (00:00) 20.9 6.94 (17:40) 3.61 (17:20) 0 0 0 0 0
01-08-2020 27.4 (17:00) 20.3 (00:00) 23.8 9.17 (15:50) 4.17 (01:40) 0 0 0 0 0
31-07-2020 37.1 (17:10) 19.2 (06:50) 28.1 7.78 (23:50) 4.44 (23:50) 0 0 0 0 0
30-07-2020 34.8 (15:00) 21.5 (00:00) 28.1 15.83 (19:00) 8.61 (18:50) 5.4 0 0 5.2 0.2
29-07-2020 32.7 (18:20) 19.4 (00:00) 26.1 6.39 (16:40) 3.89 (20:00) 0 0 0 0 0
28-07-2020 29.4 (17:00) 18.4 (00:00) 23.9 8.33 (19:50) 4.17 (01:00) 0 0 0 0 0
27-07-2020 36.5 (18:30) 17.1 (00:00) 26.8 11.11 (20:00) 5.56 (10:50) 0 0 0 0 0
26-07-2020 33.6 (18:30) 16.7 (00:00) 25.1 6.94 (21:20) 3.89 (21:30) 0 0 0 0 0
25-07-2020 33.7 (18:00) 14 (00:00) 23.9 6.39 (20:10) 3.33 (20:20) 0 0 0 0 0
24-07-2020 28.9 (16:10) 16.7 (00:00) 22.8 7.78 (21:10) 4.17 (21:10) 0 0 0 0 0
23-07-2020 32.2 (16:10) 20.1 (00:00) 26.2 7.78 (02:00) 4.44 (01:30) 0 0 0 0 0
22-07-2020 34 (18:50) 17.3 (00:00) 25.6 8.33 (11:40) 4.44 (13:20) 0.2 0.2 0 0 0
21-07-2020 32 (15:40) 17.3 (00:00) 24.6 13.33 (18:00) 5 (18:10) 0.2 0 0 0 0.2
20-07-2020 34.4 (17:50) 18.7 (00:00) 26.6 6.67 (23:50) 3.61 (23:50) 0 0 0 0 0
19-07-2020 35.2 (18:10) 15.4 (00:00) 25.3 7.78 (14:20) 3.89 (20:20) 0 0 0 0 0
18-07-2020 34.1 (18:00) 14.7 (00:00) 24.4 6.39 (08:00) 3.61 (08:00) 0 0 0 0 0
17-07-2020 26.5 (16:10) 14.9 (00:00) 20.7 8.89 (12:00) 5 (11:30) 0 0 0 0 0
16-07-2020 28.3 (18:30) 13.9 (00:00) 21.1 7.5 (15:20) 4.44 (15:30) 0 0 0 0 0
15-07-2020 24.4 (18:30) 11.6 (00:00) 18 8.33 (11:10) 4.17 (13:10) 0 0 0 0 0
14-07-2020 26 (16:10) 13.8 (00:00) 19.9 9.17 (18:50) 5.28 (18:50) 0 0 0 0 0
13-07-2020 27.5 (15:30) 16.5 (00:00) 22 8.61 (17:30) 4.17 (09:30) 0 0 0 0 0

Gráficas

Temp. máximas Temp. mínimas Temp. medias Precipitaciones Rachas de viento máximas Velocidades máximas media en intervalos de 10 minutos

Datos horarios

Fecha y hora oficial Temperatura (ºC) Velocidad del viento (km/h) Dirección del viento Racha (km/h) Dirección de racha Precipitación (mm) Presión (hPa) Tendencia (hPa) Humedad (%)
2020-08-11 23:00:00 21 7 Noroeste 15 Este 0.4 -- -- 82
2020-08-11 22:00:00 21.8 4 Sudeste 13 Sur 0 -- -- 71
2020-08-11 21:00:00 21.8 7 Este 13 Este 0 -- -- 73
2020-08-11 20:00:00 23.1 4 Este 14 Este 0 -- -- 62
2020-08-11 19:00:00 22.8 3 Este 16 Sudoeste 0 -- -- 66
2020-08-11 18:00:00 22.4 9 Oeste 17 Oeste 0 -- -- 66
2020-08-11 17:00:00 21.6 6 Noroeste 39 Noroeste 0 -- -- 70
2020-08-11 16:00:00 22 20 Noroeste 41 Oeste 0.4 -- -- 73
2020-08-11 15:00:00 28 14 Este 42 Sudeste 0 -- -- 52
2020-08-11 14:00:00 28.8 17 Este 37 Este 0 -- -- 51
2020-08-11 13:00:00 28.9 17 Este 38 Este 0 -- -- 48
2020-08-11 12:00:00 28.1 17 Este 37 Este 0 -- -- 48
2020-08-11 11:00:00 24.9 22 Este 36 Este 0 -- -- 68
2020-08-11 10:00:00 23.4 19 Este 37 Este 0 -- -- 75
2020-08-11 09:00:00 21.6 18 Este 34 Este 0 -- -- 81
2020-08-11 08:00:00 21.1 11 Este 26 Este 0.2 -- -- 80
2020-08-11 07:00:00 19.7 7 Oeste 15 Oeste 0.4 -- -- 84
2020-08-11 06:00:00 21.2 2 Oeste 8 Oeste 0 -- -- 75
2020-08-11 05:00:00 21.9 0 Calma 6 Nordeste 0 -- -- 70
2020-08-11 04:00:00 22.1 3 Sudeste 7 Sudeste 0 -- -- 67
2020-08-11 03:00:00 22.7 3 Oeste 17 Este 0 -- -- 62
2020-08-11 02:00:00 24 10 Este 18 Sudeste 0 -- -- 56
2020-08-11 01:00:00 23.5 4 Nordeste 9 Sudeste 0 -- -- 61
2020-08-11 00:00:00 23.5 0 Calma 9 Sudoeste 0 -- -- 60
2020-08-10 23:00:00 24.1 4 Oeste 7 Sur 0 -- -- 58
2020-08-10 22:00:00 26.6 4 Sur 10 Sur 0 -- -- 48
2020-08-10 21:00:00 28.2 3 Sudeste 24 Este 0 -- -- 41
2020-08-10 20:00:00 31 7 Sudeste 23 Sudeste 0 -- -- 33
2020-08-10 19:00:00 31.9 6 Sudeste 22 Sudeste 0 -- -- 29
2020-08-10 18:00:00 31.6 11 Este 29 Sudoeste 0 -- -- 31
2020-08-10 17:00:00 32 12 Sur 37 Sur 0 -- -- 32
2020-08-10 16:00:00 32.9 11 Este 26 Sur 0 -- -- 32
2020-08-10 15:00:00 31.4 13 Este 27 Este 0 -- -- 41
2020-08-10 14:00:00 29.2 14 Este 32 Este 0 -- -- 47
2020-08-10 13:00:00 28.1 14 Este 25 Este 0 -- -- 51
2020-08-10 12:00:00 26.8 12 Este 22 Este 0 -- -- 53
2020-08-10 11:00:00 23.2 3 Norte 8 Oeste 0 -- -- 71
2020-08-10 10:00:00 21.5 3 Noroeste 6 Noroeste 0 -- -- 80
2020-08-10 09:00:00 20.6 3 Noroeste 6 Oeste 0 -- -- 82
2020-08-10 08:00:00 19.7 2 Oeste 6 Oeste 0 -- -- 83
2020-08-10 07:00:00 19.6 4 Oeste 10 Noroeste 0 -- -- 82
2020-08-10 06:00:00 20.8 5 Noroeste 9 Noroeste 0 -- -- 75
2020-08-10 05:00:00 22.9 8 Sudeste 14 Este 0 -- -- 58
2020-08-10 04:00:00 23.2 5 Sudeste 13 Este 0 -- -- 57
2020-08-10 03:00:00 23.6 3 Sudoeste 13 Este 0 -- -- 64
2020-08-10 02:00:00 24.4 7 Sudeste 15 Sudeste 0 -- -- 55
2020-08-10 01:00:00 25.7 8 Este 23 Este 0 -- -- 50
2020-08-10 00:00:00 26.1 11 Este 21 Este 0 -- -- 58
2020-08-09 23:00:00 26.2 2 Sudeste 10 Sudeste 0 -- -- 70
2020-08-09 22:00:00 27.5 4 Sudeste 9 Sudoeste 0 -- -- 64
2020-08-09 21:00:00 28.6 5 Nordeste 10 Sudeste 0 -- -- 60
2020-08-09 20:00:00 30.5 4 Este 10 Oeste 0 -- -- 50
2020-08-09 19:00:00 30.6 6 Sudoeste 21 Este 0 -- -- 47
2020-08-09 18:00:00 33.1 15 Sudeste 29 Este 0 -- -- 41
2020-08-09 17:00:00 33.9 15 Este 35 Este 0 -- -- 39
2020-08-09 16:00:00 32.8 15 Este 30 Este 0 -- -- 43
2020-08-09 15:00:00 31.6 15 Este 29 Este 0 -- -- 44
2020-08-09 14:00:00 30.7 11 Este 29 Este 0 -- -- 48
2020-08-09 13:00:00 28.8 16 Este 30 Este 0 -- -- 50
2020-08-09 12:00:00 26.8 12 Este 24 Este 0 -- -- 58
2020-08-09 11:00:00 24.6 7 Este 14 Este 0 -- -- 67
2020-08-09 10:00:00 21.8 0 Calma 6 Nordeste 0 -- -- 80
2020-08-09 09:00:00 19.9 0 Calma 3 Nordeste 0 -- -- 87
2020-08-09 08:00:00 18.5 0 Calma 4 Oeste 0 -- -- 93
2020-08-09 07:00:00 18.7 2 Oeste 5 Oeste 0 -- -- 92
2020-08-09 06:00:00 19.2 3 Oeste 5 Noroeste 0 -- -- 90
2020-08-09 05:00:00 19.5 0 Calma 7 Sudoeste 0 -- -- 87
2020-08-09 04:00:00 20.3 4 Sudoeste 8 Sur 0 -- -- 81
2020-08-09 03:00:00 20.6 4 Oeste 6 Oeste 0 -- -- 82
2020-08-09 02:00:00 21.8 0 Calma 13 Sudoeste 0 -- -- 74
2020-08-09 01:00:00 22.8 3 Noroeste 13 Sudoeste 0 -- -- 73
2020-08-09 00:00:00 24.6 6 Sudoeste 24 Sudoeste 0 -- -- 62
2020-08-08 23:00:00 25.5 14 Sudoeste 24 Sudoeste 0 -- -- 58
2020-08-08 22:00:00 24.9 9 Noroeste 34 Noroeste 0.2 -- -- 62
2020-08-08 21:00:00 27.8 9 Oeste 19 Oeste 0 -- -- 51
2020-08-08 20:00:00 29.4 5 Noroeste 31 Sudoeste 0 -- -- 52
2020-08-08 19:00:00 32.2 7 Sudoeste 16 Oeste 0 -- -- 46
2020-08-08 18:00:00 33.7 5 Nordeste 10 Nordeste 0 -- -- 39
2020-08-08 17:00:00 33.2 3 Norte 15 Este 0 -- -- 40
2020-08-08 16:00:00 32.4 7 Sudeste 15 Este 0 -- -- 42
2020-08-08 15:00:00 31.2 6 Este 15 Sudeste 0 -- -- 40
2020-08-08 14:00:00 29.8 4 Norte 9 Este 0 -- -- 49
2020-08-08 13:00:00 28.4 4 Noroeste 14 Oeste 0 -- -- 51
2020-08-08 12:00:00 26.8 5 Noroeste 12 Oeste 0 -- -- 55
2020-08-08 11:00:00 25.1 7 Oeste 14 Sudoeste 0 -- -- 59
2020-08-08 10:00:00 23.5 6 Oeste 13 Oeste 0 -- -- 66
2020-08-08 09:00:00 21.7 4 Oeste 9 Oeste 0 -- -- 77
2020-08-08 08:00:00 18.9 4 Oeste 9 Sudoeste 0 -- -- 91
2020-08-08 07:00:00 18.7 0 Calma 8 Oeste 0 -- -- 91
2020-08-08 06:00:00 19.6 5 Sudoeste 11 Sudoeste 0 -- -- 88
2020-08-08 05:00:00 19.3 2 Oeste 5 Oeste 0 -- -- 93
2020-08-08 04:00:00 19.8 0 Calma 9 Sudoeste 0 -- -- 91
2020-08-08 03:00:00 20.3 0 Calma 9 Sudoeste 0 -- -- 88
2020-08-08 02:00:00 21.1 5 Sudoeste 10 Sudoeste 0 -- -- 83
2020-08-08 01:00:00 21.9 4 Oeste 9 Oeste 0 -- -- 77
2020-08-08 00:00:00 22.9 3 Sudeste 14 Sudeste 0 -- -- 69
2020-08-07 23:00:00 23.9 7 Este 28 Nordeste 0 -- -- 65
2020-08-07 22:00:00 23 12 Este 21 Este 0 -- -- 77
2020-08-07 21:00:00 23.8 8 Sudeste 24 Oeste 0.2 -- -- 74
2020-08-07 20:00:00 22.4 11 Noroeste 30 Sudoeste 0.2 -- -- 84
2020-08-07 19:00:00 23.1 6 Noroeste 41 Norte 14 -- -- 77
2020-08-07 18:00:00 25.7 18 Oeste 31 Oeste 0.2 -- -- 68
2020-08-07 17:00:00 23.7 6 Sudoeste 53 Sudeste 14.8 -- -- 73
2020-08-07 16:00:00 34.5 14 Este 36 Sudeste 0 -- -- 33
2020-08-07 15:00:00 34 19 Este 36 Este 0 -- -- 35
2020-08-07 14:00:00 32.8 19 Este 35 Este 0 -- -- 39
2020-08-07 13:00:00 31.4 16 Este 34 Este 0 -- -- 42
2020-08-07 12:00:00 29.5 19 Este 34 Este 0 -- -- 46
2020-08-07 11:00:00 28.1 16 Este 33 Este 0 -- -- 49
2020-08-07 10:00:00 26.4 15 Este 31 Este 0 -- -- 54
2020-08-07 09:00:00 24.7 16 Este 28 Este 0 -- -- 60
2020-08-07 08:00:00 23.6 12 Este 27 Este 0 -- -- 62
2020-08-07 07:00:00 23.9 13 Este 32 Este 0 -- -- 60
2020-08-07 06:00:00 24.6 14 Este 29 Este 0 -- -- 56
2020-08-07 05:00:00 25.4 14 Este 30 Este 0 -- -- 51
2020-08-07 04:00:00 26 12 Este 28 Este 0 -- -- 49
2020-08-07 03:00:00 27 12 Este 28 Este 0 -- -- 45
2020-08-07 02:00:00 27.9 13 Este 25 Sudeste 0 -- -- 40
2020-08-07 01:00:00 28.8 10 Este 22 Este 0 -- -- 37
2020-08-07 00:00:00 29.4 7 Este 14 Sudeste 0 -- -- 36
2020-08-06 23:00:00 30.4 5 Este 17 Este 0 -- -- 35
2020-08-06 22:00:00 32.1 10 Este 23 Este 0 -- -- 33
2020-08-06 21:00:00 33.2 12 Este 32 Este 0 -- -- 31
2020-08-06 20:00:00 34.3 17 Este 33 Este 0 -- -- 31
2020-08-06 19:00:00 34.7 17 Este 34 Este 0 -- -- 31
2020-08-06 18:00:00 34.9 18 Este 33 Sudeste 0 -- -- 34
2020-08-06 17:00:00 34.3 19 Este 31 Sudeste 0 -- -- 36
2020-08-06 16:00:00 33.2 15 Este 33 Este 0 -- -- 38
2020-08-06 15:00:00 31.9 20 Este 34 Este 0 -- -- 38
2020-08-06 14:00:00 30.3 19 Este 36 Este 0 -- -- 40
2020-08-06 13:00:00 28.6 14 Este 32 Este 0 -- -- 47
2020-08-06 12:00:00 26.6 16 Este 37 Este 0 -- -- 49
2020-08-06 11:00:00 24.7 13 Este 26 Este 0 -- -- 51
2020-08-06 10:00:00 22 7 Este 16 Este 0 -- -- 59
2020-08-06 09:00:00 18.1 2 Noroeste 5 Oeste 0 -- -- 64
2020-08-06 08:00:00 14.6 2 Noroeste 6 Sudoeste 0 -- -- 81
2020-08-06 07:00:00 14.6 0 Calma 6 Sudoeste 0 -- -- 78
2020-08-06 06:00:00 15.6 0 Calma 5 Oeste 0 -- -- 70
2020-08-06 05:00:00 16.3 0 Calma 5 Noroeste 0 -- -- 67
2020-08-06 04:00:00 17.5 0 Calma 5 Noroeste 0 -- -- 61
2020-08-06 03:00:00 18.9 2 Oeste 8 Oeste 0 -- -- 54
2020-08-06 02:00:00 21.2 0 Calma 13 Sur 0 -- -- 45
2020-08-06 01:00:00 23.2 6 Oeste 14 Sudoeste 0 -- -- 39
2020-08-06 00:00:00 24.2 7 Sudoeste 18 Sudoeste 0 -- -- 38
2020-08-05 23:00:00 25.4 7 Sur 17 Sudoeste 0 -- -- 36
2020-08-05 22:00:00 27.9 3 Sur 9 Sudoeste 0 -- -- 33
2020-08-05 21:00:00 30.1 5 Norte 22 Norte 0 -- -- 32
2020-08-05 20:00:00 33 9 Nordeste 17 Nordeste 0 -- -- 18
2020-08-05 19:00:00 34.8 3 Sur 10 Sudoeste 0 -- -- 16
2020-08-05 18:00:00 35.2 6 Oeste 12 Oeste 0 -- -- 13
2020-08-05 17:00:00 34.5 4 Noroeste 15 Oeste 0 -- -- 11
2020-08-05 16:00:00 33.1 6 Sudoeste 15 Noroeste 0 -- -- 14
2020-08-05 15:00:00 31.4 4 Oeste 12 Noroeste 0 -- -- 14
2020-08-05 14:00:00 29.3 4 Oeste 8 Oeste 0 -- -- 18
2020-08-05 13:00:00 26.3 4 Noroeste 12 Noroeste 0 -- -- 32
2020-08-05 12:00:00 23.7 6 Noroeste 15 Oeste 0 -- -- 48
2020-08-05 11:00:00 21.4 7 Noroeste 15 Oeste 0 -- -- 56
2020-08-05 10:00:00 18.2 8 Noroeste 14 Noroeste 0 -- -- 64
2020-08-05 09:00:00 15.4 6 Oeste 13 Oeste 0 -- -- 74
2020-08-05 08:00:00 12.8 6 Noroeste 10 Noroeste 0 -- -- 86
2020-08-05 07:00:00 12.8 6 Noroeste 13 Noroeste 0 -- -- 84
2020-08-05 06:00:00 13.9 8 Sudoeste 11 Sudoeste 0 -- -- 80
2020-08-05 05:00:00 14.6 4 Oeste 11 Sudoeste 0 -- -- 79
2020-08-05 04:00:00 16 7 Sudoeste 13 Oeste 0 -- -- 72
2020-08-05 03:00:00 17.1 6 Sudoeste 19 Oeste 0 -- -- 69
2020-08-05 02:00:00 17.6 7 Sudoeste 18 Sudoeste 0 -- -- 67
2020-08-05 01:00:00 18.2 8 Oeste 17 Oeste 0 -- -- 65
2020-08-05 00:00:00 19 5 Oeste 18 Oeste 0 -- -- 63
2020-08-04 23:00:00 20 7 Oeste 14 Oeste 0 -- -- 60
2020-08-04 22:00:00 21.6 5 Oeste 12 Oeste 0 -- -- 55
2020-08-04 21:00:00 23.4 6 Oeste 18 Norte 0 -- -- 50
2020-08-04 20:00:00 24.5 10 Norte 21 Noroeste 0 -- -- 45
2020-08-04 19:00:00 25.7 10 Norte 19 Nordeste 0 -- -- 43
2020-08-04 18:00:00 27 6 Noroeste 17 Noroeste 0 -- -- 39
2020-08-04 17:00:00 27.1 5 Noroeste 21 Noroeste 0 -- -- 41
2020-08-04 16:00:00 26.2 5 Noroeste 16 Oeste 0 -- -- 44
2020-08-04 15:00:00 25.7 5 Oeste 17 Oeste 0 -- -- 45
2020-08-04 14:00:00 24.2 8 Noroeste 19 Noroeste 0 -- -- 49
2020-08-04 13:00:00 23.3 9 Oeste 15 Oeste 0 -- -- 51
2020-08-04 12:00:00 20.8 5 Norte 14 Oeste 0 -- -- 59
2020-08-04 11:00:00 19.8 3 Oeste 13 Oeste 0 -- -- 62
2020-08-04 10:00:00 18.3 7 Noroeste 14 Oeste 0 -- -- 69
2020-08-04 09:00:00 17.3 11 Oeste 18 Noroeste 0 -- -- 72
2020-08-04 08:00:00 15.9 5 Oeste 11 Sudoeste 0 -- -- 75
2020-08-04 07:00:00 15.2 3 Oeste 9 Sudoeste 0 -- -- 75
2020-08-04 06:00:00 15.5 6 Sudoeste 17 Sudoeste 0 -- -- 73
2020-08-04 05:00:00 15.3 9 Sudoeste 19 Sudoeste 0 -- -- 73
2020-08-04 04:00:00 15.3 11 Sudoeste 18 Sudoeste 0 -- -- 73
2020-08-04 03:00:00 15.9 9 Oeste 19 Oeste 0 -- -- 75
2020-08-04 02:00:00 16.3 8 Oeste 15 Noroeste 0 -- -- 72
2020-08-04 01:00:00 16.9 7 Oeste 14 Oeste 0 -- -- 69
2020-08-04 00:00:00 17.6 6 Oeste 16 Noroeste 0 -- -- 65
2020-08-03 23:00:00 18.7 9 Oeste 17 Oeste 0 -- -- 60
2020-08-03 22:00:00 19.9 5 Oeste 12 Noroeste 0 -- -- 54
2020-08-03 21:00:00 21.4 4 Norte 19 Norte 0 -- -- 51
2020-08-03 20:00:00 22.6 8 Norte 24 Noroeste 0 -- -- 48
2020-08-03 19:00:00 23.5 10 Norte 21 Oeste 0 -- -- 47
2020-08-03 18:00:00 24.2 8 Norte 24 Norte 0 -- -- 45
2020-08-03 17:00:00 24.7 13 Noroeste 28 Noroeste 0 -- -- 45
2020-08-03 16:00:00 24.3 14 Noroeste 26 Nordeste 0 -- -- 46
2020-08-03 15:00:00 24.1 11 Noroeste 26 Noroeste 0 -- -- 48
2020-08-03 14:00:00 23.8 15 Noroeste 29 Noroeste 0 -- -- 48
2020-08-03 13:00:00 23.1 6 Sudoeste 23 Oeste 0 -- -- 48
2020-08-03 12:00:00 21.5 12 Oeste 21 Oeste 0 -- -- 54
2020-08-03 11:00:00 19.6 10 Noroeste 22 Noroeste 0 -- -- 62
2020-08-03 10:00:00 19.2 10 Oeste 21 Noroeste 0 -- -- 66
2020-08-03 09:00:00 17.9 10 Oeste 19 Oeste 0 -- -- 73
2020-08-03 08:00:00 15 5 Noroeste 15 Oeste 0 -- -- 85
2020-08-03 07:00:00 14.4 3 Noroeste 11 Sudoeste 0 -- -- 85
2020-08-03 06:00:00 14.9 4 Oeste 11 Oeste 0 -- -- 84
2020-08-03 05:00:00 15.9 6 Oeste 15 Oeste 0 -- -- 80
2020-08-03 04:00:00 16.9 10 Oeste 19 Oeste 0 -- -- 76
2020-08-03 03:00:00 17 8 Oeste 17 Sudoeste 0 -- -- 75
2020-08-03 02:00:00 17.1 10 Oeste 17 Oeste 0 -- -- 75
2020-08-03 01:00:00 17.4 7 Oeste 17 Noroeste 0 -- -- 74
2020-08-03 00:00:00 18 9 Noroeste 19 Oeste 0 -- -- 69
2020-08-02 23:00:00 18.2 9 Noroeste 24 Noroeste 0 -- -- 69
2020-08-02 22:00:00 18.8 7 Noroeste 17 Noroeste 0 -- -- 68
2020-08-02 21:00:00 19.4 10 Noroeste 21 Noroeste 0 -- -- 66
2020-08-02 20:00:00 21 9 Noroeste 19 Noroeste 0 -- -- 59
2020-08-02 19:00:00 20.8 8 Norte 25 Norte 0 -- -- 61
2020-08-02 18:00:00 21.1 10 Norte 25 Norte 0 -- -- 62
2020-08-02 17:00:00 22.3 11 Norte 23 Norte 0 -- -- 57
2020-08-02 16:00:00 23.3 7 Norte 19 Nordeste 0 -- -- 56
2020-08-02 15:00:00 22.7 7 Noroeste 16 Noroeste 0 -- -- 59
2020-08-02 14:00:00 22.2 6 Oeste 15 Noroeste 0 -- -- 61
2020-08-02 13:00:00 20.9 9 Noroeste 17 Noroeste 0 -- -- 66
2020-08-02 12:00:00 19.7 10 Noroeste 21 Norte 0 -- -- 71
2020-08-02 11:00:00 19.9 5 Norte 14 Norte 0 -- -- 69
2020-08-02 10:00:00 19.4 5 Norte 15 Noroeste 0 -- -- 72
2020-08-02 09:00:00 19.3 7 Oeste 13 Oeste 0 -- -- 76
2020-08-02 08:00:00 19.1 6 Sudoeste 12 Sudoeste 0 -- -- 76
2020-08-02 07:00:00 18.7 6 Sudoeste 16 Sudoeste 0 -- -- 79
2020-08-02 06:00:00 18.6 9 Sudoeste 15 Sudoeste 0 -- -- 80
2020-08-02 05:00:00 19 8 Oeste 14 Norte 0 -- -- 76
2020-08-02 04:00:00 18.8 5 Norte 15 Norte 0 -- -- 75
2020-08-02 03:00:00 19.4 5 Oeste 14 Oeste 0 -- -- 75
2020-08-02 02:00:00 19.7 6 Noroeste 16 Noroeste 0 -- -- 74
2020-08-02 01:00:00 19.8 7 Oeste 18 Oeste 0 -- -- 79
2020-08-02 00:00:00 20.4 9 Oeste 18 Oeste 0 -- -- 76
2020-08-01 23:00:00 20.7 8 Oeste 12 Oeste 0 -- -- 73
2020-08-01 22:00:00 21.2 7 Oeste 12 Noroeste 0 -- -- 72
2020-08-01 21:00:00 22.4 8 Noroeste 17 Noroeste 0 -- -- 65
2020-08-01 20:00:00 23.5 14 Noroeste 26 Noroeste 0 -- -- 65
2020-08-01 19:00:00 24.9 14 Norte 28 Norte 0 -- -- 56
2020-08-01 18:00:00 26.2 13 Noroeste 26 Noroeste 0 -- -- 51
2020-08-01 17:00:00 27.4 12 Noroeste 27 Oeste 0 -- -- 50
2020-08-01 16:00:00 26.1 12 Noroeste 33 Sudoeste 0 -- -- 55
2020-08-01 15:00:00 25.6 10 Oeste 23 Oeste 0 -- -- 56
2020-08-01 14:00:00 24.4 10 Noroeste 21 Oeste 0 -- -- 59
2020-08-01 13:00:00 23.2 14 Oeste 23 Oeste 0 -- -- 63
2020-08-01 12:00:00 22.8 12 Noroeste 23 Noroeste 0 -- -- 66
2020-08-01 11:00:00 21.9 10 Noroeste 17 Oeste 0 -- -- 71
2020-08-01 10:00:00 20.9 10 Oeste 19 Oeste 0 -- -- 76
2020-08-01 09:00:00 20.4 10 Oeste 17 Oeste 0 -- -- 79
2020-08-01 08:00:00 20.4 8 Oeste 16 Oeste 0 -- -- 80
2020-08-01 07:00:00 20.6 8 Oeste 17 Oeste 0 -- -- 80
2020-08-01 06:00:00 20.5 10 Oeste 19 Oeste 0 -- -- 81
2020-08-01 05:00:00 20.3 11 Oeste 26 Oeste 0 -- -- 83
2020-08-01 04:00:00 20.6 10 Oeste 23 Oeste 0 -- -- 82
2020-08-01 03:00:00 21 10 Oeste 26 Oeste 0 -- -- 81
2020-08-01 02:00:00 21.6 14 Oeste 31 Sudoeste 0 -- -- 79
2020-08-01 01:00:00 22.4 13 Sudoeste 29 Sudoeste 0 -- -- 76
2020-08-01 00:00:00 23.9 10 Sur 28 Sudoeste 0 -- -- 72
2020-07-31 23:00:00 27.2 8 Sudoeste 16 Sudoeste 0 -- -- 60
2020-07-31 22:00:00 30.5 6 Oeste 13 Oeste 0 -- -- 49
2020-07-31 21:00:00 33.7 2 Sudeste 11 Sudeste 0 -- -- 35
2020-07-31 20:00:00 35.5 5 Este 11 Nordeste 0 -- -- 30
2020-07-31 19:00:00 36.2 3 Noroeste 9 Noroeste 0 -- -- 31
2020-07-31 18:00:00 36.9 4 Noroeste 8 Noroeste 0 -- -- 29
2020-07-31 17:00:00 37 4 Oeste 10 Oeste 0 -- -- 29
2020-07-31 16:00:00 35.6 5 Oeste 11 Oeste 0 -- -- 33
2020-07-31 15:00:00 33.8 4 Noroeste 10 Este 0 -- -- 37
2020-07-31 14:00:00 31.8 4 Este 16 Este 0 -- -- 41
2020-07-31 13:00:00 29.8 8 Este 17 Este 0 -- -- 47
2020-07-31 12:00:00 27.8 7 Este 17 Este 0 -- -- 52
2020-07-31 11:00:00 26.2 8 Este 18 Este 0 -- -- 57
2020-07-31 10:00:00 23.2 3 Noroeste 6 Noroeste 0 -- -- 70
2020-07-31 09:00:00 21.2 4 Noroeste 8 Norte 0 -- -- 76
2020-07-31 08:00:00 19.9 4 Noroeste 8 Oeste 0 -- -- 82
2020-07-31 07:00:00 19.3 3 Este 6 Norte 0 -- -- 82
2020-07-31 06:00:00 19.5 3 Noroeste 15 Este 0 -- -- 83
2020-07-31 05:00:00 20.4 4 Este 13 Este 0 -- -- 78
2020-07-31 04:00:00 20.4 5 Este 13 Este 0 -- -- 79
2020-07-31 03:00:00 20.9 3 Norte 8 Norte 0 -- -- 77
2020-07-31 02:00:00 22.3 4 Sudeste 10 Sur 0 -- -- 69
2020-07-31 01:00:00 22.5 4 Sudoeste 9 Sudoeste 0 -- -- 71
2020-07-31 00:00:00 22.6 7 Nordeste 12 Nordeste 0 -- -- 72
2020-07-30 23:00:00 23.3 4 Nordeste 17 Sudoeste 0 -- -- 68
2020-07-30 22:00:00 25 5 Norte 26 Oeste 0 -- -- 57
2020-07-30 21:00:00 25.7 9 Este 34 Este 0 -- -- 53
2020-07-30 20:00:00 26 15 Sudeste 45 Sudeste 0 -- -- 50
2020-07-30 19:00:00 24.8 22 Sudeste 57 Este 0.2 -- -- 60
2020-07-30 18:00:00 22.8 6 Nordeste 17 Sur 0.2 -- -- 80
2020-07-30 17:00:00 23.7 5 Este 36 Sudoeste 0.6 -- -- 77
2020-07-30 16:00:00 24.4 9 Noroeste 48 Oeste 4.4 -- -- 69
2020-07-30 15:00:00 34.8 19 Este 43 Este 0 -- -- 32
2020-07-30 14:00:00 32.9 21 Este 43 Este 0 -- -- 35
2020-07-30 13:00:00 30.9 21 Este 42 Este 0 -- -- 40
2020-07-30 12:00:00 29.4 22 Este 46 Este 0 -- -- 43
2020-07-30 11:00:00 27.7 26 Este 44 Este 0 -- -- 47
2020-07-30 10:00:00 26.5 23 Este 42 Sudeste 0 -- -- 50
2020-07-30 09:00:00 24 21 Este 33 Sudeste 0 -- -- 59
2020-07-30 08:00:00 22.7 15 Este 27 Este 0 -- -- 62
2020-07-30 07:00:00 22.4 14 Este 22 Sudeste 0 -- -- 63
2020-07-30 06:00:00 22.9 12 Este 23 Sudeste 0 -- -- 64
2020-07-30 05:00:00 22.8 11 Este 18 Sudeste 0 -- -- 65
2020-07-30 04:00:00 21.5 3 Sudoeste 5 Este 0 -- -- 71
2020-07-30 03:00:00 22.1 2 Sudoeste 7 Sudoeste 0 -- -- 69
2020-07-30 02:00:00 23.1 3 Oeste 9 Oeste 0 -- -- 67
2020-07-30 01:00:00 24.8 3 Oeste 8 Sudoeste 0 -- -- 58
2020-07-30 00:00:00 26.7 3 Sur 7 Sur 0 -- -- 50
2020-07-29 23:00:00 28.6 3 Oeste 15 Este 0 -- -- 47
2020-07-29 22:00:00 30.4 8 Este 19 Este 0 -- -- 41
2020-07-29 21:00:00 31.8 9 Este 23 Este 0 -- -- 38
2020-07-29 20:00:00 32.1 14 Este 23 Este 0 -- -- 41
2020-07-29 19:00:00 32.5 13 Este 23 Este 0 -- -- 40
2020-07-29 18:00:00 32.3 10 Este 23 Este 0 -- -- 41
2020-07-29 17:00:00 31.7 10 Este 23 Este 0 -- -- 43
2020-07-29 16:00:00 30.7 9 Este 22 Sudeste 0 -- -- 45
2020-07-29 15:00:00 29.2 7 Nordeste 21 Este 0 -- -- 49
2020-07-29 14:00:00 27.4 5 Este 19 Nordeste 0 -- -- 53
2020-07-29 13:00:00 25.2 5 Nordeste 14 Oeste 0 -- -- 59
2020-07-29 12:00:00 23.7 5 Oeste 15 Sudoeste 0 -- -- 64
2020-07-29 11:00:00 22.3 9 Oeste 17 Oeste 0 -- -- 68
2020-07-29 10:00:00 21 8 Oeste 18 Sudoeste 0 -- -- 73
2020-07-29 09:00:00 19.9 9 Oeste 18 Sudoeste 0 -- -- 77
2020-07-29 08:00:00 19.4 7 Sudoeste 14 Sudoeste 0 -- -- 79
2020-07-29 07:00:00 19.5 8 Sudoeste 17 Sudoeste 0 -- -- 78
2020-07-29 06:00:00 19.8 8 Sudoeste 14 Sudoeste 0 -- -- 77
2020-07-29 05:00:00 20 8 Oeste 15 Oeste 0 -- -- 76
2020-07-29 04:00:00 20.4 9 Oeste 16 Sudoeste 0 -- -- 75
2020-07-29 03:00:00 20.7 9 Sudoeste 15 Sudoeste 0 -- -- 75
2020-07-29 02:00:00 21 7 Sudoeste 13 Sudoeste 0 -- -- 75
2020-07-29 01:00:00 21.5 5 Oeste 10 Sudoeste 0 -- -- 74
2020-07-29 00:00:00 21.6 7 Oeste 14 Noroeste 0 -- -- 74
2020-07-28 23:00:00 22 5 Noroeste 12 Noroeste 0 -- -- 73
2020-07-28 22:00:00 22.5 3 Noroeste 15 Norte 0 -- -- 72
2020-07-28 21:00:00 23.1 8 Norte 18 Norte 0 -- -- 70
2020-07-28 20:00:00 24.1 12 Norte 30 Norte 0 -- -- 66
2020-07-28 19:00:00 27 10 Noroeste 21 Noroeste 0 -- -- 56
2020-07-28 18:00:00 27.2 9 Noroeste 23 Oeste 0 -- -- 54
2020-07-28 17:00:00 29.4 12 Oeste 27 Oeste 0 -- -- 49
2020-07-28 16:00:00 28.6 12 Oeste 26 Oeste 0 -- -- 52
2020-07-28 15:00:00 27.3 9 Noroeste 23 Oeste 0 -- -- 55
2020-07-28 14:00:00 26.3 9 Oeste 25 Oeste 0 -- -- 55
2020-07-28 13:00:00 25.2 10 Oeste 19 Sudoeste 0 -- -- 60
2020-07-28 12:00:00 24 8 Oeste 18 Oeste 0 -- -- 62
2020-07-28 11:00:00 22.9 6 Oeste 14 Oeste 0 -- -- 65
2020-07-28 10:00:00 22.5 9 Oeste 14 Oeste 0 -- -- 66
2020-07-28 09:00:00 21.5 9 Sudoeste 21 Sudoeste 0 -- -- 70
2020-07-28 08:00:00 19.4 7 Sudoeste 24 Sudoeste 0 -- -- 77
2020-07-28 07:00:00 18.4 13 Sudoeste 24 Sudoeste 0 -- -- 80
2020-07-28 06:00:00 18.6 12 Sudoeste 20 Sudoeste 0 -- -- 77
2020-07-28 05:00:00 19.1 9 Sudoeste 21 Sudoeste 0 -- -- 71
2020-07-28 04:00:00 19.8 9 Sudoeste 19 Sur 0 -- -- 65
2020-07-28 03:00:00 20.3 10 Sudoeste 28 Sudoeste 0 -- -- 61
2020-07-28 02:00:00 20.8 10 Sur 22 Sudoeste 0 -- -- 58
2020-07-28 01:00:00 21.7 15 Sudoeste 28 Sudoeste 0 -- -- 53
2020-07-28 00:00:00 22.8 13 Sudoeste 32 Sudoeste 0 -- -- 65
2020-07-27 23:00:00 24 14 Sudoeste 30 Sudoeste 0 -- -- 67
2020-07-27 22:00:00 26.5 11 Sur 25 Sudoeste 0 -- -- 62
2020-07-27 21:00:00 30 7 Sudeste 28 Sudeste 0 -- -- 47
2020-07-27 20:00:00 33.9 17 Sudeste 40 Sudeste 0 -- -- 31
2020-07-27 19:00:00 36.1 14 Este 29 Sudeste 0 -- -- 32
2020-07-27 18:00:00 36.4 13 Este 27 Sudeste 0 -- -- 31
2020-07-27 17:00:00 35.6 13 Este 27 Este 0 -- -- 36
2020-07-27 16:00:00 34.3 14 Este 29 Sudeste 0 -- -- 40
2020-07-27 15:00:00 33.2 13 Este 27 Este 0 -- -- 41
2020-07-27 14:00:00 31.3 14 Este 27 Este 0 -- -- 46
2020-07-27 13:00:00 29.5 15 Este 31 Este 0 -- -- 53
2020-07-27 12:00:00 27.9 14 Este 30 Sudeste 0 -- -- 58
2020-07-27 09:00:00 -- -- -- -- -- -- -- -- --
2020-07-27 08:00:00 17.9 3 Noroeste 4 Noroeste 0 -- -- 88
2020-07-27 07:00:00 17.3 2 Oeste 5 Sudoeste 0 -- -- 89
2020-07-27 06:00:00 18.3 3 Sudoeste 6 Sudoeste 0 -- -- 82
2020-07-27 05:00:00 19.2 2 Sudoeste 6 Sudoeste 0 -- -- 80
2020-07-27 04:00:00 20 3 Oeste 5 Oeste 0 -- -- 81
2020-07-27 03:00:00 20.9 2 Oeste 9 Oeste 0 -- -- 74
2020-07-27 02:00:00 22.1 5 Oeste 9 Oeste 0 -- -- 73
2020-07-27 01:00:00 23.8 7 Oeste 10 Oeste 0 -- -- 66
2020-07-27 00:00:00 25.9 3 Este 22 Este 0 -- -- 57
2020-07-26 23:00:00 27.1 14 Este 24 Este 0 -- -- 52
2020-07-26 22:00:00 29.1 12 Este 25 Sudeste 0 -- -- 47
2020-07-26 21:00:00 31.6 4 Este 14 Este 0 -- -- 38
2020-07-26 20:00:00 32.6 3 Noroeste 9 Nordeste 0 -- -- 33
2020-07-26 19:00:00 33.4 3 Oeste 12 Oeste 0 -- -- 32
2020-07-26 18:00:00 32.8 4 Norte 13 Oeste 0 -- -- 32
2020-07-26 17:00:00 33.2 6 Oeste 14 Oeste 0 -- -- 33
2020-07-26 16:00:00 32.3 4 Oeste 14 Oeste 0 -- -- 34
2020-07-26 15:00:00 30.8 5 Oeste 11 Oeste 0 -- -- 37
2020-07-26 14:00:00 28.9 3 Norte 12 Oeste 0 -- -- 37
2020-07-26 13:00:00 27.4 6 Oeste 12 Oeste 0 -- -- 44
2020-07-26 12:00:00 25.5 7 Noroeste 13 Noroeste 0 -- -- 48
2020-07-26 11:00:00 23.8 6 Oeste 14 Oeste 0 -- -- 55
2020-07-26 10:00:00 22 6 Oeste 15 Oeste 0 -- -- 62
2020-07-26 09:00:00 20.3 8 Oeste 13 Sudoeste 0 -- -- 65
2020-07-26 08:00:00 18 2 Noroeste 11 Sudoeste 0 -- -- 73
2020-07-26 07:00:00 17.3 6 Sudoeste 14 Sudoeste 0 -- -- 71
2020-07-26 06:00:00 17.6 8 Sudoeste 13 Sudoeste 0 -- -- 70
2020-07-26 05:00:00 18.3 4 Sudoeste 13 Sudoeste 0 -- -- 69
2020-07-26 04:00:00 19.1 8 Sudoeste 17 Sudoeste 0 -- -- 66
2020-07-26 03:00:00 19.4 9 Sudoeste 21 Sudoeste 0 -- -- 66
2020-07-26 02:00:00 20 12 Sudoeste 22 Sudoeste 0 -- -- 65
2020-07-26 01:00:00 20.9 9 Sudoeste 22 Sudoeste 0 -- -- 63
2020-07-26 00:00:00 22.1 9 Sudoeste 21 Sudoeste 0 -- -- 59
2020-07-25 23:00:00 23.4 8 Sur 23 Sudoeste 0 -- -- 57
2020-07-25 22:00:00 25.5 10 Sudoeste 22 Sudoeste 0 -- -- 53
2020-07-25 21:00:00 28.5 8 Oeste 23 Norte 0 -- -- 47
2020-07-25 20:00:00 32.9 9 Este 18 Este 0 -- -- 28
2020-07-25 19:00:00 33.2 8 Este 19 Este 0 -- -- 28
2020-07-25 18:00:00 33.7 6 Este 18 Este 0 -- -- 28
2020-07-25 17:00:00 33 6 Este 14 Este 0 -- -- 27
2020-07-25 16:00:00 31.8 7 Este 16 Este 0 -- -- 29
2020-07-25 15:00:00 29.8 7 Este 17 Nordeste 0 -- -- 29
2020-07-25 14:00:00 27.9 9 Este 20 Este 0 -- -- 38
2020-07-25 13:00:00 25.5 7 Norte 17 Norte 0 -- -- 39
2020-07-25 12:00:00 23.1 5 Nordeste 13 Noroeste 0 -- -- 55
2020-07-25 11:00:00 21.2 7 Noroeste 15 Noroeste 0 -- -- 61
2020-07-25 10:00:00 19.3 7 Oeste 17 Oeste 0 -- -- 68
2020-07-25 09:00:00 17.8 9 Oeste 18 Oeste 0 -- -- 72
2020-07-25 08:00:00 16 6 Sudoeste 14 Sudoeste 0 -- -- 78
2020-07-25 07:00:00 14.1 4 Sudoeste 13 Oeste 0 -- -- 88
2020-07-25 06:00:00 14.9 3 Oeste 10 Oeste 0 -- -- 84
2020-07-25 05:00:00 15.6 7 Oeste 14 Sudoeste 0 -- -- 81
2020-07-25 04:00:00 16.1 2 Noroeste 14 Sudoeste 0 -- -- 80
2020-07-25 03:00:00 16.9 6 Sudoeste 15 Sudoeste 0 -- -- 76
2020-07-25 02:00:00 17.3 6 Sudoeste 13 Sudoeste 0 -- -- 75
2020-07-25 01:00:00 18.3 5 Oeste 18 Sudoeste 0 -- -- 70
2020-07-25 00:00:00 19.1 9 Oeste 20 Oeste 0 -- -- 67
2020-07-24 23:00:00 19.9 5 Oeste 15 Oeste 0 -- -- 65
2020-07-24 22:00:00 20.9 6 Noroeste 28 Noroeste 0 -- -- 61
2020-07-24 21:00:00 23.1 13 Noroeste 24 Noroeste 0 -- -- 54
2020-07-24 20:00:00 25 14 Noroeste 23 Noroeste 0 -- -- 50
2020-07-24 19:00:00 27 12 Noroeste 24 Noroeste 0 -- -- 42
2020-07-24 18:00:00 28.1 13 Oeste 24 Noroeste 0 -- -- 40
2020-07-24 17:00:00 28.5 9 Noroeste 20 Oeste 0 -- -- 40
2020-07-24 16:00:00 28.7 6 Oeste 19 Noroeste 0 -- -- 38
2020-07-24 15:00:00 27.9 10 Oeste 19 Oeste 0 -- -- 41
2020-07-24 14:00:00 26.3 6 Noroeste 18 Oeste 0 -- -- 42
2020-07-24 13:00:00 25.5 8 Noroeste 15 Oeste 0 -- -- 47
2020-07-24 12:00:00 23.7 4 Noroeste 15 Oeste 0 -- -- 50
2020-07-24 11:00:00 22.7 5 Noroeste 15 Oeste 0 -- -- 56
2020-07-24 10:00:00 21.3 9 Oeste 20 Sudoeste 0 -- -- 61
2020-07-24 09:00:00 19.7 8 Sudoeste 20 Sudoeste 0 -- -- 67
2020-07-24 08:00:00 17.9 9 Sudoeste 16 Sudoeste 0 -- -- 72
2020-07-24 07:00:00 16.7 6 Sudoeste 13 Oeste 0 -- -- 74
2020-07-24 06:00:00 17.2 7 Sudoeste 14 Sudoeste 0 -- -- 70
2020-07-24 05:00:00 17.6 6 Sudoeste 12 Sur 0 -- -- 68
2020-07-24 04:00:00 18 6 Sudoeste 15 Sudoeste 0 -- -- 66
2020-07-24 03:00:00 18.5 8 Sudoeste 17 Sudoeste 0 -- -- 64
2020-07-24 02:00:00 19.2 7 Sudoeste 22 Sudoeste 0 -- -- 60
2020-07-24 01:00:00 20 13 Oeste 24 Oeste 0 -- -- 61
2020-07-24 00:00:00 21.1 14 Oeste 27 Oeste 0 -- -- 63
2020-07-23 23:00:00 22.2 10 Oeste 24 Oeste 0 -- -- 63
2020-07-23 22:00:00 24.1 9 Oeste 16 Oeste 0 -- -- 59
2020-07-23 21:00:00 26.4 6 Norte 18 Noroeste 0 -- -- 53
2020-07-23 20:00:00 28 8 Norte 27 Norte 0 -- -- 49
2020-07-23 19:00:00 30.4 9 Noroeste 22 Noroeste 0 -- -- 40
2020-07-23 18:00:00 30.7 8 Noroeste 16 Oeste 0 -- -- 41
2020-07-23 17:00:00 31.4 12 Noroeste 22 Noroeste 0 -- -- 42
2020-07-23 16:00:00 32 9 Oeste 22 Oeste 0 -- -- 43
2020-07-23 15:00:00 30.3 8 Oeste 22 Oeste 0 -- -- 48
2020-07-23 14:00:00 28.3 9 Oeste 21 Sudoeste 0 -- -- 53
2020-07-23 13:00:00 26.2 13 Oeste 25 Oeste 0 -- -- 59
2020-07-23 12:00:00 24.5 14 Oeste 25 Oeste 0 -- -- 65
2020-07-23 11:00:00 22.7 15 Oeste 23 Oeste 0 -- -- 72
2020-07-23 10:00:00 21.5 12 Oeste 24 Oeste 0 -- -- 76
2020-07-23 09:00:00 20.9 14 Oeste 26 Oeste 0 -- -- 79
2020-07-23 08:00:00 20.5 12 Oeste 23 Oeste 0 -- -- 80
2020-07-23 07:00:00 20.5 11 Oeste 20 Oeste 0 -- -- 80
2020-07-23 06:00:00 20.4 10 Oeste 22 Oeste 0 -- -- 81
2020-07-23 05:00:00 20.3 11 Oeste 22 Sudoeste 0 -- -- 81
2020-07-23 04:00:00 20.1 12 Oeste 25 Oeste 0 -- -- 81
2020-07-23 03:00:00 20.4 12 Oeste 26 Oeste 0 -- -- 80
2020-07-23 02:00:00 20.9 14 Oeste 28 Oeste 0 -- -- 79
2020-07-23 01:00:00 21.7 14 Sudoeste 27 Oeste 0 -- -- 77
2020-07-23 00:00:00 22.8 15 Sudoeste 24 Sudoeste 0 -- -- 72
2020-07-22 23:00:00 24.9 12 Sudoeste 24 Sudoeste 0 -- -- 65
2020-07-22 22:00:00 28.1 8 Oeste 13 Noroeste 0 -- -- 56
2020-07-22 21:00:00 30 7 Oeste 12 Norte 0 -- -- 49
2020-07-22 20:00:00 31.3 7 Norte 17 Norte 0 -- -- 44
2020-07-22 19:00:00 33.6 5 Sur 14 Este 0 -- -- 32
2020-07-22 18:00:00 33.2 8 Este 25 Este 0 -- -- 30
2020-07-22 17:00:00 32.9 5 Este 19 Este 0 -- -- 30
2020-07-22 16:00:00 32.1 13 Este 24 Este 0 -- -- 31
2020-07-22 15:00:00 30.4 10 Nordeste 25 Este 0 -- -- 39
2020-07-22 14:00:00 28.6 15 Este 30 Este 0 -- -- 45
2020-07-22 13:00:00 27.6 15 Este 26 Este 0 -- -- 50
2020-07-22 12:00:00 26.2 13 Este 30 Este 0 -- -- 54
2020-07-22 11:00:00 24 8 Este 18 Este 0 -- -- 64
2020-07-22 10:00:00 21.7 6 Este 13 Sudoeste 0 -- -- 76
2020-07-22 09:00:00 20.5 5 Sur 12 Sudoeste 0 -- -- 77
2020-07-22 08:00:00 18.6 4 Oeste 12 Oeste 0 -- -- 88
2020-07-22 07:00:00 17.4 3 Sudoeste 7 Oeste 0 -- -- 93
2020-07-22 06:00:00 17.7 0 Calma 3 Noroeste 0 -- -- 92
2020-07-22 05:00:00 18.3 2 Oeste 5 Sudoeste 0 -- -- 87
2020-07-22 04:00:00 18.9 2 Sudoeste 9 Sudoeste 0 -- -- 84
2020-07-22 03:00:00 19.6 3 Oeste 13 Oeste 0 -- -- 84
2020-07-22 02:00:00 20 5 Oeste 10 Noroeste 0 -- -- 81
2020-07-22 01:00:00 21.2 8 Sudoeste 19 Sudoeste 0.2 -- -- 76
2020-07-22 00:00:00 21.3 10 Oeste 19 Sudoeste 0 -- -- 76
2020-07-21 23:00:00 22.2 5 Sudoeste 18 Sudeste 0.2 -- -- 76
2020-07-21 22:00:00 24.6 8 Sudoeste 14 Sur 0 -- -- 66
2020-07-21 21:00:00 24.8 9 Oeste 17 Oeste 0 -- -- 59
2020-07-21 20:00:00 25.2 8 Oeste 25 Sudoeste 0 -- -- 49
2020-07-21 19:00:00 24.3 7 Oeste 40 Sudoeste 0 -- -- 67
2020-07-21 18:00:00 29.8 12 Norte 48 Nordeste 0 -- -- 27
2020-07-21 17:00:00 30.7 5 Sur 22 Sudeste 0 -- -- 44
2020-07-21 16:00:00 31.7 11 Este 25 Este 0 -- -- 42
2020-07-21 15:00:00 31.3 12 Este 27 Este 0 -- -- 43
2020-07-21 14:00:00 29.5 13 Este 23 Sudeste 0 -- -- 46
2020-07-21 13:00:00 27.7 12 Este 26 Este 0 -- -- 50
2020-07-21 12:00:00 25.8 13 Este 22 Nordeste 0 -- -- 53
2020-07-21 11:00:00 23.5 8 Este 14 Este 0 -- -- 58
2020-07-21 10:00:00 20.9 4 Noroeste 10 Oeste 0 -- -- 67
2020-07-21 09:00:00 19.7 3 Oeste 12 Oeste 0 -- -- 69
2020-07-21 08:00:00 18 5 Oeste 9 Noroeste 0 -- -- 76
2020-07-21 07:00:00 17.4 5 Sudoeste 9 Sudoeste 0 -- -- 76
2020-07-21 06:00:00 17.9 5 Sudoeste 10 Sudoeste 0 -- -- 73
2020-07-21 05:00:00 18.4 5 Sudoeste 13 Sudoeste 0 -- -- 72
2020-07-21 04:00:00 18.9 5 Sudoeste 16 Sudoeste 0 -- -- 70
2020-07-21 03:00:00 19.7 8 Sudoeste 18 Sudoeste 0 -- -- 69
2020-07-21 02:00:00 20.3 8 Sudoeste 22 Sudoeste 0 -- -- 67
2020-07-21 01:00:00 21 10 Sudoeste 26 Sudoeste 0 -- -- 65
2020-07-21 00:00:00 22 12 Sudoeste 24 Sudoeste 0 -- -- 63
2020-07-20 23:00:00 23.6 10 Sudoeste 23 Sudoeste 0 -- -- 60
2020-07-20 22:00:00 25.5 10 Sudoeste 22 Oeste 0 -- -- 57
2020-07-20 21:00:00 28.4 11 Oeste 19 Sudoeste 0 -- -- 52
2020-07-20 20:00:00 30.3 10 Oeste 23 Norte 0 -- -- 48
2020-07-20 19:00:00 31.6 12 Norte 22 Norte 0 -- -- 45
2020-07-20 18:00:00 34 5 Nordeste 20 Este 0 -- -- 37
2020-07-20 17:00:00 33.3 5 Nordeste 15 Este 0 -- -- 38
2020-07-20 16:00:00 32.5 7 Nordeste 17 Nordeste 0 -- -- 40
2020-07-20 15:00:00 31.6 5 Este 21 Nordeste 0 -- -- 42
2020-07-20 14:00:00 30 6 Nordeste 16 Este 0 -- -- 44
2020-07-20 13:00:00 28.5 7 Este 13 Este 0 -- -- 46
2020-07-20 12:00:00 26.7 4 Oeste 9 Oeste 0 -- -- 49
2020-07-20 11:00:00 24.3 6 Noroeste 12 Oeste 0 -- -- 57
2020-07-20 10:00:00 23 5 Oeste 16 Oeste 0 -- -- 62
2020-07-20 09:00:00 21.2 7 Oeste 17 Sudoeste 0 -- -- 66
2020-07-20 08:00:00 19.7 6 Sudoeste 14 Sudoeste 0 -- -- 69
2020-07-20 07:00:00 18.8 6 Sudoeste 13 Sudoeste 0 -- -- 71
2020-07-20 06:00:00 19.2 8 Sudoeste 17 Sudoeste 0 -- -- 69
2020-07-20 05:00:00 19.8 8 Sudoeste 18 Sudoeste 0 -- -- 67
2020-07-20 04:00:00 20.5 7 Sudoeste 21 Sudoeste 0 -- -- 65
2020-07-20 03:00:00 21.1 8 Sudoeste 21 Sur 0 -- -- 66
2020-07-20 02:00:00 22.1 8 Sudoeste 18 Sudoeste 0 -- -- 65
2020-07-20 01:00:00 23.1 10 Sudoeste 24 Sur 0 -- -- 64
2020-07-20 00:00:00 24.9 9 Sudoeste 19 Sudoeste 0 -- -- 59
2020-07-19 23:00:00 27.1 7 Sur 22 Sur 0 -- -- 54
2020-07-19 22:00:00 29.8 3 Sur 18 Nordeste 0 -- -- 46
2020-07-19 21:00:00 32.2 8 Este 25 Sudeste 0 -- -- 41
2020-07-19 20:00:00 34 13 Este 24 Este 0 -- -- 26
2020-07-19 19:00:00 34.8 12 Este 26 Este 0 -- -- 26
2020-07-19 18:00:00 35.1 10 Este 24 Este 0 -- -- 25
2020-07-19 17:00:00 34.4 12 Este 22 Este 0 -- -- 27
2020-07-19 16:00:00 33.4 10 Este 18 Este 0 -- -- 28
2020-07-19 15:00:00 31.9 10 Este 28 Este 0 -- -- 32
2020-07-19 14:00:00 30.4 9 Este 21 Este 0 -- -- 39
2020-07-19 13:00:00 28 10 Este 22 Este 0 -- -- 46
2020-07-19 12:00:00 26.1 12 Este 24 Este 0 -- -- 56
2020-07-19 11:00:00 24.4 14 Este 21 Este 0 -- -- 57
2020-07-19 10:00:00 22.6 9 Este 16 Este 0 -- -- 62
2020-07-19 09:00:00 19.4 2 Norte 3 Noroeste 0 -- -- 75
2020-07-19 08:00:00 17 0 Calma 4 Oeste 0 -- -- 83
2020-07-19 07:00:00 15.5 0 Calma 3 Oeste 0 -- -- 89
2020-07-19 06:00:00 16.5 0 Calma 5 Oeste 0 -- -- 86
2020-07-19 05:00:00 17.4 3 Oeste 6 Oeste 0 -- -- 82
2020-07-19 04:00:00 18.4 2 Oeste 6 Sudoeste 0 -- -- 78
2020-07-19 03:00:00 19.6 3 Oeste 9 Sudoeste 0 -- -- 77
2020-07-19 02:00:00 21.1 2 Sudoeste 13 Sudoeste 0 -- -- 67
2020-07-19 01:00:00 22.5 5 Sudoeste 14 Sudoeste 0 -- -- 62
2020-07-19 00:00:00 23.4 0 Calma 6 Sudoeste 0 -- -- 54
2020-07-18 23:00:00 25.7 0 Calma 14 Sudeste 0 -- -- 46
2020-07-18 22:00:00 27.9 4 Este 14 Este 0 -- -- 46
2020-07-18 21:00:00 29.5 5 Norte 19 Norte 0 -- -- 43
2020-07-18 20:00:00 31.8 11 Norte 19 Noroeste 0 -- -- 34
2020-07-18 19:00:00 32.8 3 Este 11 Este 0 -- -- 27
2020-07-18 18:00:00 34.1 8 Oeste 12 Oeste 0 -- -- 30
2020-07-18 17:00:00 32.4 4 Noroeste 10 Oeste 0 -- -- 29
2020-07-18 16:00:00 31 5 Oeste 11 Norte 0 -- -- 32
2020-07-18 15:00:00 28.7 5 Norte 10 Norte 0 -- -- 35
2020-07-18 14:00:00 27.7 5 Oeste 14 Noroeste 0 -- -- 41
2020-07-18 13:00:00 25.2 4 Norte 9 Nordeste 0 -- -- 46
2020-07-18 12:00:00 23.5 4 Nordeste 12 Oeste 0 -- -- 53
2020-07-18 11:00:00 22 7 Noroeste 14 Oeste 0 -- -- 58
2020-07-18 10:00:00 20 9 Oeste 17 Oeste 0 -- -- 66
2020-07-18 09:00:00 18.2 9 Sudoeste 21 Sudoeste 0 -- -- 67
2020-07-18 08:00:00 15.8 13 Sudoeste 23 Sudoeste 0 -- -- 72
2020-07-18 07:00:00 14.8 11 Sudoeste 19 Sudoeste 0 -- -- 78
2020-07-18 06:00:00 14.7 13 Sudoeste 20 Sur 0 -- -- 78
2020-07-18 05:00:00 15.3 9 Sudoeste 17 Sudoeste 0 -- -- 78
2020-07-18 04:00:00 15.5 5 Oeste 20 Sudoeste 0 -- -- 80
2020-07-18 03:00:00 15.7 8 Sudoeste 18 Sudoeste 0 -- -- 78
2020-07-18 02:00:00 16.3 9 Sudoeste 18 Sur 0 -- -- 74
2020-07-18 01:00:00 16.7 2 Oeste 17 Sur 0 -- -- 71
2020-07-18 00:00:00 17.6 6 Sur 13 Sur 0 -- -- 67
2020-07-17 23:00:00 18.9 6 Oeste 12 Oeste 0 -- -- 63
2020-07-17 22:00:00 20.1 4 Noroeste 12 Noroeste 0 -- -- 58
2020-07-17 21:00:00 22.6 5 Noroeste 21 Noroeste 0 -- -- 50
2020-07-17 20:00:00 22.9 13 Norte 23 Norte 0 -- -- 47
2020-07-17 19:00:00 24.4 7 Norte 23 Norte 0 -- -- 44
2020-07-17 18:00:00 25.2 10 Norte 23 Norte 0 -- -- 42
2020-07-17 17:00:00 25.4 10 Norte 24 Norte 0 -- -- 42
2020-07-17 16:00:00 26.4 10 Oeste 27 Oeste 0 -- -- 41
2020-07-17 15:00:00 24.9 13 Noroeste 26 Oeste 0 -- -- 44
2020-07-17 14:00:00 23.7 11 Oeste 28 Sudoeste 0 -- -- 46
2020-07-17 13:00:00 22 11 Noroeste 28 Oeste 0 -- -- 52
2020-07-17 12:00:00 21 15 Oeste 32 Oeste 0 -- -- 55
2020-07-17 11:00:00 20.4 9 Oeste 22 Oeste 0 -- -- 56
2020-07-17 10:00:00 18.9 14 Oeste 27 Oeste 0 -- -- 60
2020-07-17 09:00:00 17.9 14 Oeste 26 Oeste 0 -- -- 65
2020-07-17 08:00:00 16.9 12 Oeste 24 Oeste 0 -- -- 69
2020-07-17 07:00:00 15.3 13 Oeste 22 Oeste 0 -- -- 76
2020-07-17 06:00:00 15.1 11 Oeste 23 Oeste 0 -- -- 77
2020-07-17 05:00:00 15 11 Oeste 22 Sudoeste 0 -- -- 78
2020-07-17 04:00:00 15 11 Oeste 24 Oeste 0 -- -- 78
2020-07-17 03:00:00 15.3 12 Oeste 23 Sudoeste 0 -- -- 77
2020-07-17 02:00:00 16 12 Sudoeste 21 Sudoeste 0 -- -- 76
2020-07-17 01:00:00 16.8 11 Sudoeste 23 Sudoeste 0 -- -- 73
2020-07-17 00:00:00 17.8 13 Sudoeste 23 Sudoeste 0 -- -- 71
2020-07-16 23:00:00 18.9 8 Sudoeste 19 Oeste 0 -- -- 66
2020-07-16 22:00:00 20.9 7 Oeste 15 Oeste 0 -- -- 59
2020-07-16 21:00:00 23.3 5 Noroeste 17 Norte 0 -- -- 49
2020-07-16 20:00:00 24.2 9 Norte 21 Noroeste 0 -- -- 44
2020-07-16 19:00:00 27.4 6 Noroeste 18 Oeste 0 -- -- 35
2020-07-16 18:00:00 27.9 8 Oeste 19 Noroeste 0 -- -- 35
2020-07-16 17:00:00 27.7 12 Noroeste 22 Oeste 0 -- -- 37
2020-07-16 16:00:00 27.7 13 Oeste 27 Oeste 0 -- -- 38
2020-07-16 15:00:00 27 11 Oeste 21 Oeste 0 -- -- 41
2020-07-16 14:00:00 25.1 9 Oeste 20 Sudoeste 0 -- -- 43
2020-07-16 13:00:00 23.7 6 Norte 22 Noroeste 0 -- -- 48
2020-07-16 12:00:00 21.5 8 Noroeste 19 Oeste 0 -- -- 54
2020-07-16 11:00:00 20.3 11 Oeste 23 Oeste 0 -- -- 57
2020-07-16 10:00:00 18.9 12 Oeste 22 Sudoeste 0 -- -- 62
2020-07-16 09:00:00 17.7 11 Oeste 21 Oeste 0 -- -- 66
2020-07-16 08:00:00 15.7 12 Sudoeste 19 Sudoeste 0 -- -- 72
2020-07-16 07:00:00 13.9 10 Sudoeste 20 Sudoeste 0 -- -- 77
2020-07-16 06:00:00 14.1 13 Sudoeste 22 Sudoeste 0 -- -- 76
2020-07-16 05:00:00 14.6 10 Sudoeste 20 Oeste 0 -- -- 76
2020-07-16 04:00:00 14.8 7 Sudoeste 17 Sudoeste 0 -- -- 75
2020-07-16 03:00:00 15.3 8 Oeste 16 Sudoeste 0 -- -- 73
2020-07-16 02:00:00 15.8 7 Sudoeste 17 Sudoeste 0 -- -- 71
2020-07-16 01:00:00 16.2 6 Oeste 12 Oeste 0 -- -- 68
2020-07-16 00:00:00 17.1 5 Oeste 11 Oeste 0 -- -- 66
2020-07-15 23:00:00 18.1 4 Oeste 13 Oeste 0 -- -- 60
2020-07-15 22:00:00 19.7 8 Oeste 15 Oeste 0 -- -- 52
2020-07-15 21:00:00 21.6 6 Noroeste 17 Norte 0 -- -- 46
2020-07-15 20:00:00 22.6 9 Noroeste 24 Norte 0 -- -- 43
2020-07-15 19:00:00 24 12 Noroeste 24 Noroeste 0 -- -- 40
2020-07-15 18:00:00 23.9 10 Norte 24 Norte 0 -- -- 42
2020-07-15 17:00:00 23.9 9 Noroeste 24 Noroeste 0 -- -- 45
2020-07-15 16:00:00 22.8 13 Noroeste 24 Noroeste 0 -- -- 48
2020-07-15 15:00:00 22.5 7 Oeste 24 Oeste 0 -- -- 52
2020-07-15 14:00:00 20.8 13 Noroeste 28 Noroeste 0 -- -- 57
2020-07-15 13:00:00 20.9 8 Noroeste 23 Noroeste 0 -- -- 56
2020-07-15 12:00:00 19.9 12 Oeste 30 Noroeste 0 -- -- 62
2020-07-15 11:00:00 19 13 Oeste 23 Oeste 0 -- -- 61
2020-07-15 10:00:00 18.3 12 Oeste 22 Sudoeste 0 -- -- 55
2020-07-15 09:00:00 15.7 9 Noroeste 19 Noroeste 0 -- -- 57
2020-07-15 08:00:00 13.5 10 Noroeste 17 Noroeste 0 -- -- 60
2020-07-15 07:00:00 11.8 4 Norte 10 Noroeste 0 -- -- 64
2020-07-15 06:00:00 12.2 5 Noroeste 16 Sudoeste 0 -- -- 66
2020-07-15 05:00:00 13 8 Sudoeste 20 Sudoeste 0 -- -- 63
2020-07-15 04:00:00 13.7 10 Sudoeste 20 Sudoeste 0 -- -- 66
2020-07-15 03:00:00 14.2 11 Sudoeste 21 Sudoeste 0 -- -- 70
2020-07-15 02:00:00 14.5 10 Sudoeste 19 Sudoeste 0 -- -- 65
2020-07-15 01:00:00 15.3 9 Sudoeste 19 Sudoeste 0 -- -- 58
2020-07-15 00:00:00 15.9 7 Noroeste 18 Noroeste 0 -- -- 47
2020-07-14 23:00:00 17.2 7 Noroeste 20 Noroeste 0 -- -- 38
2020-07-14 22:00:00 18.6 6 Noroeste 26 Norte 0 -- -- 33
2020-07-14 21:00:00 20.4 11 Norte 32 Norte 0 -- -- 36
2020-07-14 20:00:00 22 16 Norte 32 Norte 0 -- -- 38
2020-07-14 19:00:00 23.1 16 Norte 33 Norte 0 -- -- 40
2020-07-14 18:00:00 25 13 Norte 30 Norte 0 -- -- 39
2020-07-14 17:00:00 25.7 9 Norte 22 Norte 0 -- -- 32
2020-07-14 16:00:00 25.7 7 Norte 23 Norte 0 -- -- 36
2020-07-14 15:00:00 25.6 8 Noroeste 23 Oeste 0 -- -- 33
2020-07-14 14:00:00 24.2 8 Norte 20 Oeste 0 -- -- 35
2020-07-14 13:00:00 22.9 8 Oeste 24 Oeste 0 -- -- 39
2020-07-14 12:00:00 21.7 12 Oeste 21 Oeste 0 -- -- 43
2020-07-14 11:00:00 20.6 11 Oeste 20 Oeste 0 -- -- 44
2020-07-14 10:00:00 18.8 13 Oeste 23 Oeste 0 -- -- 55
2020-07-14 09:00:00 17.6 10 Oeste 20 Sudoeste 0 -- -- 63
2020-07-14 08:00:00 15.6 8 Sudoeste 16 Oeste 0 -- -- 63
2020-07-14 07:00:00 13.9 9 Sudoeste 17 Sudoeste 0 -- -- 65
2020-07-14 06:00:00 13.8 8 Sudoeste 17 Sudoeste 0 -- -- 66
2020-07-14 05:00:00 14.2 5 Sudoeste 17 Sudoeste 0 -- -- 68
2020-07-14 04:00:00 14.6 6 Sudoeste 20 Sudoeste 0 -- -- 67
2020-07-14 03:00:00 15.6 9 Sudoeste 17 Oeste 0 -- -- 65
2020-07-14 02:00:00 16.4 8 Sudoeste 23 Oeste 0 -- -- 64
2020-07-14 01:00:00 17.3 9 Sudoeste 17 Sudoeste 0 -- -- 61
2020-07-14 00:00:00 18.3 7 Sudoeste 13 Sudoeste 0 -- -- 53
2020-07-13 23:00:00 19.1 6 Oeste 12 Sudoeste 0 -- -- 50
2020-07-13 22:00:00 20.4 8 Oeste 23 Norte 0 -- -- 44
2020-07-13 21:00:00 22.2 12 Norte 27 Norte 0 -- -- 40
2020-07-13 20:00:00 23.8 13 Norte 29 Norte 0 -- -- 41
2020-07-13 19:00:00 25.4 14 Norte 27 Norte 0 -- -- 38
2020-07-13 18:00:00 26 12 Norte 31 Nordeste 0 -- -- 43
2020-07-13 17:00:00 26.9 12 Norte 27 Norte 0 -- -- 42
2020-07-13 16:00:00 27.2 10 Noroeste 22 Norte 0 -- -- 39
2020-07-13 15:00:00 27.2 7 Noroeste 19 Noroeste 0 -- -- 40
2020-07-13 14:00:00 26.7 9 Noroeste 24 Norte 0 -- -- 40
2020-07-13 13:00:00 25.7 6 Sudeste 19 Oeste 0 -- -- 42
2020-07-13 12:00:00 24.1 10 Oeste 18 Oeste 0 -- -- 45
2020-07-13 11:00:00 22.2 13 Oeste 23 Oeste 0 -- -- 51
2020-07-13 10:00:00 20.6 13 Oeste 26 Oeste 0 -- -- 59
2020-07-13 09:00:00 19.4 12 Oeste 26 Sudoeste 0 -- -- 63
2020-07-13 08:00:00 17.9 12 Oeste 24 Sudoeste 0 -- -- 65
2020-07-13 07:00:00 16.5 9 Sudoeste 19 Sudoeste 0 -- -- 71
2020-07-13 06:00:00 16.7 11 Sudoeste 20 Sudoeste 0 -- -- 72
2020-07-13 05:00:00 16.8 12 Sudoeste 23 Oeste 0 -- -- 73
2020-07-13 04:00:00 17.4 11 Oeste 21 Oeste 0 -- -- 75
2020-07-13 03:00:00 18.1 10 Sudoeste 22 Sudoeste 0 -- -- 79
2020-07-13 02:00:00 18.6 10 Sudoeste 21 Sur 0 -- -- 80
2020-07-13 01:00:00 19.1 12 Sudoeste 23 Sudoeste 0 -- -- 78
2020-07-13 00:00:00 19.7 8 Sudoeste 21 Sudoeste 0 -- -- 76